Vista Star — WDG3609 — position and weather

sailwx.info

Track history (hours):
 
Tides and Currents Weather Stations Pressure Air Temp Water Temp Dewpoint Dewpoint Depression Visibility Wind Speed Wind Dir Waves Ship Positions

Vista Star

Owner: Vista Cruises Inc., Duluth, MN. More information available from US FCC via Universal Licensing System and Coast Guard Vessel Documentation Center.

Last reported at 2017-Oct-27 18:11 UTC. Time now 2017-Nov-18 15:23 UTC.
Position N 46°47' W 092°06'.
Warning: this ship's position is 21 days out of date.

Type: Ship. MMSI: 367527820.

Date/timePositionNaut miles runAvg speedWind from/ knotsBaromVisibWave heightAir tempDewpointWater temp
2017-Oct-27 18:11N 46°47' W 092°06'0 0.0
2017-Oct-27 18:00N 46°47' W 092°06'0 0.0
2017-Oct-27 17:30N 46°47' W 092°06'0 0.0
2017-Oct-27 17:00N 46°47' W 092°06'0 0.0
2017-Oct-27 16:30N 46°47' W 092°06'0 0.0
2017-Oct-27 16:00N 46°47' W 092°06'0 0.0
2017-Oct-27 15:30N 46°47' W 092°06'0 0.0
2017-Oct-27 15:00N 46°47' W 092°06'0 0.0
2017-Oct-27 14:30N 46°47' W 092°06'0 0.0
2017-Oct-27 14:01N 46°47' W 092°06'0 0.0
2017-Oct-27 13:31N 46°47' W 092°06'  
2017-Oct-24 18:41N 46°47' W 092°06'0 0.0
2017-Oct-24 18:30N 46°47' W 092°06'0 0.0
2017-Oct-24 15:03N 46°47' W 092°06'0 0.0
2017-Oct-24 15:00N 46°47' W 092°06'0 0.0
2017-Oct-24 14:30N 46°47' W 092°06'0 0.0
2017-Oct-24 14:00N 46°47' W 092°06'0 0.0
2017-Oct-22 21:23N 46°47' W 092°06'1 2.4
2017-Oct-22 21:00N 46°46' W 092°06'1 0.8
2017-Oct-22 19:52N 46°45' W 092°06'2 4.8
2017-Oct-22 19:30N 46°47' W 092°06'0 0.1
2017-Oct-22 19:00N 46°47' W 092°06'1 1.7
2017-Oct-22 18:30N 46°46' W 092°06'1 2.0
2017-Oct-22 17:53N 46°45' W 092°06'2 5.2
2017-Oct-22 17:30N 46°47' W 092°06'0 0.3
2017-Oct-22 17:00N 46°47' W 092°06'0 0.8
2017-Oct-22 16:30N 46°46' W 092°06'2 1.9
2017-Oct-22 15:28N 46°45' W 092°07'2 5.0
2017-Oct-22 15:00N 46°47' W 092°06'0 0.3
2017-Oct-22 14:30N 46°47' W 092°06'0 0.0
2017-Oct-22 14:00N 46°47' W 092°06'0 0.0
2017-Oct-22 02:10N 46°47' W 092°06'0 0.0
2017-Oct-22 02:00N 46°47' W 092°06'2 3.8
2017-Oct-22 01:30N 46°45' W 092°05'3 5.6
2017-Oct-22 01:00N 46°43' W 092°03'1 2.3
2017-Oct-22 00:26N 46°44' W 092°04'2 2.9
2017-Oct-21 23:36N 46°45' W 092°07'1 6.6
2017-Oct-21 23:30N 46°45' W 092°07'2 4.3
2017-Oct-21 23:00N 46°47' W 092°06'0 0.0
2017-Oct-21 22:30N 46°47' W 092°06'0 0.0
2017-Oct-21 22:00N 46°47' W 092°06'0 0.0
2017-Oct-21 21:30N 46°47' W 092°06'0 0.0
2017-Oct-21 21:00N 46°47' W 092°06'2 3.6
2017-Oct-21 20:30N 46°45' W 092°06'1 2.8
2017-Oct-21 19:59N 46°45' W 092°08'2 4.1
2017-Oct-21 19:30N 46°46' W 092°06'0 0.8
2017-Oct-21 19:00N 46°47' W 092°06'0 0.0
2017-Oct-21 18:30N 46°47' W 092°06'2 4.8
2017-Oct-21 18:00N 46°45' W 092°08'2 4.2
2017-Oct-21 17:30N 46°47' W 092°06'0 0.7
2017-Oct-21 17:00N 46°47' W 092°06'0 0.0
2017-Oct-20 23:46N 46°47' W 092°06'1 3.6
2017-Oct-20 23:30N 46°46' W 092°06'2 3.5
2017-Oct-20 23:00N 46°45' W 092°08'2 4.7
2017-Oct-20 22:30N 46°47' W 092°06'0 0.2
2017-Oct-20 22:00N 46°47' W 092°06'0 0.0
2017-Oct-20 21:30N 46°47' W 092°06'1 1.4
2017-Oct-20 21:00N 46°46' W 092°06'3 5.7
2017-Oct-20 20:30N 46°44' W 092°09'1 2.0
2017-Oct-20 20:00N 46°45' W 092°08'2 4.6
2017-Oct-20 19:30N 46°47' W 092°06'0 0.2
2017-Oct-20 19:00N 46°47' W 092°06'0 0.8
2017-Oct-20 18:30N 46°46' W 092°06'2 4.2
2017-Oct-20 18:00N 46°45' W 092°08'2 4.2
2017-Oct-20 17:30N 46°47' W 092°06'0 0.6
2017-Oct-20 17:00N 46°47' W 092°06'2 3.1
2017-Oct-20 16:30N 46°45' W 092°05'1 1.7
2017-Oct-20 16:01N 46°45' W 092°06'1 2.5
2017-Oct-20 15:30N 46°45' W 092°08'2 4.5
2017-Oct-20 15:00N 46°47' W 092°06'0 0.4
2017-Oct-20 14:30N 46°47' W 092°06'0 0.0
2017-Oct-20 00:03N 46°47' W 092°06'0 0.0
2017-Oct-20 00:00N 46°47' W 092°06'1 2.3
2017-Oct-19 23:30N 46°46' W 092°06'1 2.8
2017-Oct-19 23:00N 46°45' W 092°07'2 4.5
2017-Oct-19 22:30N 46°47' W 092°06'0 0.1
2017-Oct-19 22:00N 46°47' W 092°06'0 0.0
2017-Oct-19 21:30N 46°47' W 092°06'1 2.0
2017-Oct-19 21:00N 46°46' W 092°06'3 6.1
2017-Oct-19 20:30N 46°44' W 092°09'2 3.3
2017-Oct-19 20:00N 46°45' W 092°07'2 4.5
2017-Oct-19 19:30N 46°47' W 092°06'0 0.1
2017-Oct-19 19:00N 46°47' W 092°06'1 3.0
2017-Oct-19 18:30N 46°45' W 092°06'3 5.7
2017-Oct-19 18:00N 46°43' W 092°09'2 3.5
2017-Oct-19 17:30N 46°45' W 092°07'2 4.4
2017-Oct-19 17:00N 46°47' W 092°06'0 0.1
2017-Oct-19 16:30N 46°47' W 092°06'0 0.0
2017-Oct-19 16:00N 46°47' W 092°06'0 0.0
2017-Oct-18 21:25N 46°47' W 092°06'0 1.2
2017-Oct-18 21:00N 46°46' W 092°06'2 4.5
2017-Oct-18 20:30N 46°44' W 092°08'1 1.0
2017-Oct-18 20:00N 46°45' W 092°08'2 4.1
2017-Oct-18 19:30N 46°47' W 092°06'0 0.7
2017-Oct-18 19:00N 46°47' W 092°06'0 0.0
2017-Oct-17 21:12N 46°47' W 092°06'0 1.3
2017-Oct-17 21:01N 46°47' W 092°06'2 4.2
2017-Oct-17 20:30N 46°44' W 092°06'2 3.2
2017-Oct-17 20:01N 46°45' W 092°08'2 3.9
2017-Oct-17 19:31N 46°46' W 092°06'0 0.9
2017-Oct-17 19:00N 46°47' W 092°06'0 0.2
2017-Oct-17 18:30N 46°47' W 092°06'  
Track history (hours):
 
Tides and Currents Weather Stations Pressure Air Temp Water Temp Dewpoint Dewpoint Depression Visibility Wind Speed Wind Dir Waves Ship Positions

Vista Star

Owner: Vista Cruises Inc., Duluth, MN. More information available from US FCC via Universal Licensing System and Coast Guard Vessel Documentation Center.

Last reported at 2017-Oct-27 18:11 UTC. Time now 2017-Nov-18 15:23 UTC.
Position N 46°47' W 092°06'.
Warning: this ship's position is 21 days out of date.

Type: Ship. MMSI: 367527820.

Date/timePositionNaut miles runAvg speedWind from/ knotsBaromVisibWave heightAir tempDewpointWater temp
2017-Oct-27 18:11N 46°47' W 092°06'0 0.0
2017-Oct-27 18:00N 46°47' W 092°06'0 0.0
2017-Oct-27 17:30N 46°47' W 092°06'0 0.0
2017-Oct-27 17:00N 46°47' W 092°06'0 0.0
2017-Oct-27 16:30N 46°47' W 092°06'0 0.0
2017-Oct-27 16:00N 46°47' W 092°06'0 0.0
2017-Oct-27 15:30N 46°47' W 092°06'0 0.0
2017-Oct-27 15:00N 46°47' W 092°06'0 0.0
2017-Oct-27 14:30N 46°47' W 092°06'0 0.0
2017-Oct-27 14:01N 46°47' W 092°06'0 0.0
2017-Oct-27 13:31N 46°47' W 092°06'  
2017-Oct-24 18:41N 46°47' W 092°06'0 0.0
2017-Oct-24 18:30N 46°47' W 092°06'0 0.0
2017-Oct-24 15:03N 46°47' W 092°06'0 0.0
2017-Oct-24 15:00N 46°47' W 092°06'0 0.0
2017-Oct-24 14:30N 46°47' W 092°06'0 0.0
2017-Oct-24 14:00N 46°47' W 092°06'0 0.0
2017-Oct-22 21:23N 46°47' W 092°06'1 2.4
2017-Oct-22 21:00N 46°46' W 092°06'1 0.8
2017-Oct-22 19:52N 46°45' W 092°06'2 4.8
2017-Oct-22 19:30N 46°47' W 092°06'0 0.1
2017-Oct-22 19:00N 46°47' W 092°06'1 1.7
2017-Oct-22 18:30N 46°46' W 092°06'1 2.0
2017-Oct-22 17:53N 46°45' W 092°06'2 5.2
2017-Oct-22 17:30N 46°47' W 092°06'0 0.3
2017-Oct-22 17:00N 46°47' W 092°06'0 0.8
2017-Oct-22 16:30N 46°46' W 092°06'2 1.9
2017-Oct-22 15:28N 46°45' W 092°07'2 5.0
2017-Oct-22 15:00N 46°47' W 092°06'0 0.3
2017-Oct-22 14:30N 46°47' W 092°06'0 0.0
2017-Oct-22 14:00N 46°47' W 092°06'0 0.0
2017-Oct-22 02:10N 46°47' W 092°06'0 0.0
2017-Oct-22 02:00N 46°47' W 092°06'2 3.8
2017-Oct-22 01:30N 46°45' W 092°05'3 5.6
2017-Oct-22 01:00N 46°43' W 092°03'1 2.3
2017-Oct-22 00:26N 46°44' W 092°04'2 2.9
2017-Oct-21 23:36N 46°45' W 092°07'1 6.6
2017-Oct-21 23:30N 46°45' W 092°07'2 4.3
2017-Oct-21 23:00N 46°47' W 092°06'0 0.0
2017-Oct-21 22:30N 46°47' W 092°06'0 0.0
2017-Oct-21 22:00N 46°47' W 092°06'0 0.0
2017-Oct-21 21:30N 46°47' W 092°06'0 0.0
2017-Oct-21 21:00N 46°47' W 092°06'2 3.6
2017-Oct-21 20:30N 46°45' W 092°06'1 2.8
2017-Oct-21 19:59N 46°45' W 092°08'2 4.1
2017-Oct-21 19:30N 46°46' W 092°06'0 0.8
2017-Oct-21 19:00N 46°47' W 092°06'0 0.0
2017-Oct-21 18:30N 46°47' W 092°06'2 4.8
2017-Oct-21 18:00N 46°45' W 092°08'2 4.2
2017-Oct-21 17:30N 46°47' W 092°06'0 0.7
2017-Oct-21 17:00N 46°47' W 092°06'0 0.0
2017-Oct-20 23:46N 46°47' W 092°06'1 3.6
2017-Oct-20 23:30N 46°46' W 092°06'2 3.5
2017-Oct-20 23:00N 46°45' W 092°08'2 4.7
2017-Oct-20 22:30N 46°47' W 092°06'0 0.2
2017-Oct-20 22:00N 46°47' W 092°06'0 0.0
2017-Oct-20 21:30N 46°47' W 092°06'1 1.4
2017-Oct-20 21:00N 46°46' W 092°06'3 5.7
2017-Oct-20 20:30N 46°44' W 092°09'1 2.0
2017-Oct-20 20:00N 46°45' W 092°08'2 4.6
2017-Oct-20 19:30N 46°47' W 092°06'0 0.2
2017-Oct-20 19:00N 46°47' W 092°06'0 0.8
2017-Oct-20 18:30N 46°46' W 092°06'2 4.2
2017-Oct-20 18:00N 46°45' W 092°08'2 4.2
2017-Oct-20 17:30N 46°47' W 092°06'0 0.6
2017-Oct-20 17:00N 46°47' W 092°06'2 3.1
2017-Oct-20 16:30N 46°45' W 092°05'1 1.7
2017-Oct-20 16:01N 46°45' W 092°06'1 2.5
2017-Oct-20 15:30N 46°45' W 092°08'2 4.5
2017-Oct-20 15:00N 46°47' W 092°06'0 0.4
2017-Oct-20 14:30N 46°47' W 092°06'0 0.0
2017-Oct-20 00:03N 46°47' W 092°06'0 0.0
2017-Oct-20 00:00N 46°47' W 092°06'1 2.3
2017-Oct-19 23:30N 46°46' W 092°06'1 2.8
2017-Oct-19 23:00N 46°45' W 092°07'2 4.5
2017-Oct-19 22:30N 46°47' W 092°06'0 0.1
2017-Oct-19 22:00N 46°47' W 092°06'0 0.0
2017-Oct-19 21:30N 46°47' W 092°06'1 2.0
2017-Oct-19 21:00N 46°46' W 092°06'3 6.1
2017-Oct-19 20:30N 46°44' W 092°09'2 3.3
2017-Oct-19 20:00N 46°45' W 092°07'2 4.5
2017-Oct-19 19:30N 46°47' W 092°06'0 0.1
2017-Oct-19 19:00N 46°47' W 092°06'1 3.0
2017-Oct-19 18:30N 46°45' W 092°06'3 5.7
2017-Oct-19 18:00N 46°43' W 092°09'2 3.5
2017-Oct-19 17:30N 46°45' W 092°07'2 4.4
2017-Oct-19 17:00N 46°47' W 092°06'0 0.1
2017-Oct-19 16:30N 46°47' W 092°06'0 0.0
2017-Oct-19 16:00N 46°47' W 092°06'0 0.0
2017-Oct-18 21:25N 46°47' W 092°06'0 1.2
2017-Oct-18 21:00N 46°46' W 092°06'2 4.5
2017-Oct-18 20:30N 46°44' W 092°08'1 1.0
2017-Oct-18 20:00N 46°45' W 092°08'2 4.1
2017-Oct-18 19:30N 46°47' W 092°06'0 0.7
2017-Oct-18 19:00N 46°47' W 092°06'0 0.0
2017-Oct-17 21:12N 46°47' W 092°06'0 1.3
2017-Oct-17 21:01N 46°47' W 092°06'2 4.2
2017-Oct-17 20:30N 46°44' W 092°06'2 3.2
2017-Oct-17 20:01N 46°45' W 092°08'2 3.9
2017-Oct-17 19:31N 46°46' W 092°06'0 0.9
2017-Oct-17 19:00N 46°47' W 092°06'0 0.2
2017-Oct-17 18:30N 46°47' W 092°06'  

Dump ship's entire track history